sensor_id;sensor_type;location;lat;lon;timestamp;temperature;humidity
28244;DHT22;15510;52.512;13.300;2023-10-13T00:01:50;14.80;99.90
28244;DHT22;15510;52.512;13.300;2023-10-13T00:04:18;14.80;99.90
28244;DHT22;15510;52.512;13.300;2023-10-13T00:07:00;14.80;99.90
28244;DHT22;15510;52.512;13.300;2023-10-13T00:09:33;14.70;99.90
28244;DHT22;15510;52.512;13.300;2023-10-13T00:12:09;14.70;99.90
28244;DHT22;15510;52.512;13.300;2023-10-13T00:14:41;14.70;99.90
28244;DHT22;15510;52.512;13.300;2023-10-13T00:17:09;14.70;99.90
28244;DHT22;15510;52.512;13.300;2023-10-13T00:19:48;14.70;99.90
28244;DHT22;15510;52.512;13.300;2023-10-13T00:22:17;14.80;99.90
28244;DHT22;15510;52.512;13.300;2023-10-13T00:24:45;14.80;99.90
28244;DHT22;15510;52.512;13.300;2023-10-13T00:27:18;14.80;99.90
28244;DHT22;15510;52.512;13.300;2023-10-13T00:30:10;14.80;99.90
28244;DHT22;15510;52.512;13.300;2023-10-13T00:32:55;14.80;99.90
28244;DHT22;15510;52.512;13.300;2023-10-13T00:35:24;14.90;99.90
28244;DHT22;15510;52.512;13.300;2023-10-13T00:38:03;14.80;99.90
28244;DHT22;15510;52.512;13.300;2023-10-13T00:40:31;14.80;99.90
28244;DHT22;15510;52.512;13.300;2023-10-13T00:43:00;14.70;99.90
28244;DHT22;15510;52.512;13.300;2023-10-13T00:45:46;14.70;99.90
28244;DHT22;15510;52.512;13.300;2023-10-13T00:48:21;14.70;99.90
28244;DHT22;15510;52.512;13.300;2023-10-13T00:50:53;14.80;99.90
28244;DHT22;15510;52.512;13.300;2023-10-13T00:53:24;14.70;99.90
28244;DHT22;15510;52.512;13.300;2023-10-13T00:55:51;14.70;99.90
28244;DHT22;15510;52.512;13.300;2023-10-13T00:58:17;14.70;99.90
28244;DHT22;15510;52.512;13.300;2023-10-13T01:00:49;14.80;99.90
28244;DHT22;15510;52.512;13.300;2023-10-13T01:03:23;14.80;99.90
28244;DHT22;15510;52.512;13.300;2023-10-13T01:05:53;14.90;99.90
28244;DHT22;15510;52.512;13.300;2023-10-13T01:08:31;14.90;99.90
28244;DHT22;15510;52.512;13.300;2023-10-13T01:11:01;14.90;99.90
28244;DHT22;15510;52.512;13.300;2023-10-13T01:13:27;14.90;99.90
28244;DHT22;15510;52.512;13.300;2023-10-13T01:15:55;14.80;99.90
28244;DHT22;15510;52.512;13.300;2023-10-13T01:18:22;14.80;99.90
28244;DHT22;15510;52.512;13.300;2023-10-13T01:20:51;14.70;99.90
28244;DHT22;15510;52.512;13.300;2023-10-13T01:23:46;14.70;99.90
28244;DHT22;15510;52.512;13.300;2023-10-13T01:26:20;14.70;99.90
28244;DHT22;15510;52.512;13.300;2023-10-13T01:28:51;14.70;99.90
28244;DHT22;15510;52.512;13.300;2023-10-13T01:31:20;14.70;99.90
28244;DHT22;15510;52.512;13.300;2023-10-13T01:33:58;14.70;99.90
28244;DHT22;15510;52.512;13.300;2023-10-13T01:36:28;14.70;99.90
28244;DHT22;15510;52.512;13.300;2023-10-13T01:38:57;14.60;99.90
28244;DHT22;15510;52.512;13.300;2023-10-13T01:41:26;14.60;99.90
28244;DHT22;15510;52.512;13.300;2023-10-13T01:43:52;14.60;99.90
28244;DHT22;15510;52.512;13.300;2023-10-13T01:46:27;14.60;99.90
28244;DHT22;15510;52.512;13.300;2023-10-13T01:48:54;14.60;99.90
28244;DHT22;15510;52.512;13.300;2023-10-13T01:51:19;14.70;99.90
28244;DHT22;15510;52.512;13.300;2023-10-13T01:53:51;14.70;99.90
28244;DHT22;15510;52.512;13.300;2023-10-13T01:56:24;14.70;99.90
28244;DHT22;15510;52.512;13.300;2023-10-13T01:58:53;14.70;99.90
28244;DHT22;15510;52.512;13.300;2023-10-13T02:01:33;14.80;99.90
28244;DHT22;15510;52.512;13.300;2023-10-13T02:04:02;14.70;99.90
28244;DHT22;15510;52.512;13.300;2023-10-13T02:06:35;14.80;99.90
28244;DHT22;15510;52.512;13.300;2023-10-13T02:09:04;14.70;99.90
28244;DHT22;15510;52.512;13.300;2023-10-13T02:11:39;14.70;99.90
28244;DHT22;15510;52.512;13.300;2023-10-13T02:14:08;14.70;99.90
28244;DHT22;15510;52.512;13.300;2023-10-13T02:16:38;14.60;99.90
28244;DHT22;15510;52.512;13.300;2023-10-13T02:19:03;14.60;99.90
28244;DHT22;15510;52.512;13.300;2023-10-13T02:21:34;14.60;99.90
28244;DHT22;15510;52.512;13.300;2023-10-13T02:24:11;14.60;99.90
28244;DHT22;15510;52.512;13.300;2023-10-13T02:26:45;14.60;99.90
28244;DHT22;15510;52.512;13.300;2023-10-13T02:29:13;14.70;99.90
28244;DHT22;15510;52.512;13.300;2023-10-13T02:31:42;14.70;99.90
28244;DHT22;15510;52.512;13.300;2023-10-13T02:34:08;14.70;99.90
28244;DHT22;15510;52.512;13.300;2023-10-13T02:36:39;14.70;99.90
28244;DHT22;15510;52.512;13.300;2023-10-13T02:39:18;14.70;99.90
28244;DHT22;15510;52.512;13.300;2023-10-13T02:41:54;14.70;99.90
28244;DHT22;15510;52.512;13.300;2023-10-13T02:44:21;14.80;99.90
28244;DHT22;15510;52.512;13.300;2023-10-13T02:46:59;14.80;99.90
28244;DHT22;15510;52.512;13.300;2023-10-13T02:49:26;14.70;99.90
28244;DHT22;15510;52.512;13.300;2023-10-13T02:51:55;14.70;99.90
28244;DHT22;15510;52.512;13.300;2023-10-13T02:54:35;14.70;99.90
28244;DHT22;15510;52.512;13.300;2023-10-13T02:57:22;14.80;99.90
28244;DHT22;15510;52.512;13.300;2023-10-13T02:59:52;14.70;99.90
28244;DHT22;15510;52.512;13.300;2023-10-13T03:02:24;14.70;99.90
28244;DHT22;15510;52.512;13.300;2023-10-13T03:04:55;14.70;99.90
28244;DHT22;15510;52.512;13.300;2023-10-13T03:07:53;14.70;99.90
28244;DHT22;15510;52.512;13.300;2023-10-13T03:10:23;14.80;99.90
28244;DHT22;15510;52.512;13.300;2023-10-13T03:13:00;14.80;99.90
28244;DHT22;15510;52.512;13.300;2023-10-13T03:15:31;14.80;99.90
28244;DHT22;15510;52.512;13.300;2023-10-13T03:17:56;14.80;99.90
28244;DHT22;15510;52.512;13.300;2023-10-13T03:20:25;14.80;99.90
28244;DHT22;15510;52.512;13.300;2023-10-13T03:22:58;14.80;99.90
28244;DHT22;15510;52.512;13.300;2023-10-13T03:25:24;14.80;99.90
28244;DHT22;15510;52.512;13.300;2023-10-13T03:28:02;14.90;99.90
28244;DHT22;15510;52.512;13.300;2023-10-13T03:30:33;14.90;99.90
28244;DHT22;15510;52.512;13.300;2023-10-13T03:33:13;14.80;99.90
28244;DHT22;15510;52.512;13.300;2023-10-13T03:35:42;14.80;99.90
28244;DHT22;15510;52.512;13.300;2023-10-13T03:38:08;14.80;99.90
28244;DHT22;15510;52.512;13.300;2023-10-13T03:40:45;14.80;99.90
28244;DHT22;15510;52.512;13.300;2023-10-13T03:43:34;14.80;99.90
28244;DHT22;15510;52.512;13.300;2023-10-13T03:46:10;14.70;99.90
28244;DHT22;15510;52.512;13.300;2023-10-13T03:48:36;14.80;99.90
28244;DHT22;15510;52.512;13.300;2023-10-13T03:51:17;14.80;99.90
28244;DHT22;15510;52.512;13.300;2023-10-13T03:53:47;14.80;99.90
28244;DHT22;15510;52.512;13.300;2023-10-13T03:56:23;14.80;99.90
28244;DHT22;15510;52.512;13.300;2023-10-13T03:58:53;14.70;99.90
28244;DHT22;15510;52.512;13.300;2023-10-13T04:01:20;14.70;99.90
28244;DHT22;15510;52.512;13.300;2023-10-13T04:03:58;14.70;99.90
28244;DHT22;15510;52.512;13.300;2023-10-13T04:06:34;14.70;99.90
28244;DHT22;15510;52.512;13.300;2023-10-13T04:09:15;14.80;99.90
28244;DHT22;15510;52.512;13.300;2023-10-13T04:12:03;14.80;99.90
28244;DHT22;15510;52.512;13.300;2023-10-13T04:14:40;14.90;99.90
28244;DHT22;15510;52.512;13.300;2023-10-13T04:17:25;14.90;99.90
28244;DHT22;15510;52.512;13.300;2023-10-13T04:19:57;15.00;99.90
28244;DHT22;15510;52.512;13.300;2023-10-13T04:22:37;15.00;99.90
28244;DHT22;15510;52.512;13.300;2023-10-13T04:25:23;15.00;99.90
28244;DHT22;15510;52.512;13.300;2023-10-13T04:28:08;15.00;99.90
28244;DHT22;15510;52.512;13.300;2023-10-13T04:30:47;15.10;99.90
28244;DHT22;15510;52.512;13.300;2023-10-13T04:33:31;15.00;99.90
28244;DHT22;15510;52.512;13.300;2023-10-13T04:38:46;15.10;99.90
28244;DHT22;15510;52.512;13.300;2023-10-13T04:41:25;15.10;99.90
28244;DHT22;15510;52.512;13.300;2023-10-13T04:44:00;15.10;99.90
28244;DHT22;15510;52.512;13.300;2023-10-13T04:46:52;15.10;99.90
28244;DHT22;15510;52.512;13.300;2023-10-13T04:49:24;15.10;99.90
28244;DHT22;15510;52.512;13.300;2023-10-13T04:52:04;15.10;99.90
28244;DHT22;15510;52.512;13.300;2023-10-13T04:55:01;15.10;99.90
28244;DHT22;15510;52.512;13.300;2023-10-13T04:57:50;15.10;99.90
28244;DHT22;15510;52.512;13.300;2023-10-13T05:00:26;15.10;99.90
28244;DHT22;15510;52.512;13.300;2023-10-13T05:03:10;15.20;99.90
28244;DHT22;15510;52.512;13.300;2023-10-13T05:05:54;15.10;99.90
28244;DHT22;15510;52.512;13.300;2023-10-13T05:08:39;15.20;99.90
28244;DHT22;15510;52.512;13.300;2023-10-13T05:11:23;15.20;99.90
28244;DHT22;15510;52.512;13.300;2023-10-13T05:14:16;15.20;99.90
28244;DHT22;15510;52.512;13.300;2023-10-13T05:17:03;15.30;99.90
28244;DHT22;15510;52.512;13.300;2023-10-13T05:19:47;15.30;99.90
28244;DHT22;15510;52.512;13.300;2023-10-13T05:22:32;15.30;99.90
28244;DHT22;15510;52.512;13.300;2023-10-13T05:25:16;15.20;99.90
28244;DHT22;15510;52.512;13.300;2023-10-13T05:28:09;15.20;99.90
28244;DHT22;15510;52.512;13.300;2023-10-13T05:30:53;15.30;99.90
28244;DHT22;15510;52.512;13.300;2023-10-13T05:33:38;15.30;99.90
28244;DHT22;15510;52.512;13.300;2023-10-13T05:36:22;15.30;99.90
28244;DHT22;15510;52.512;13.300;2023-10-13T05:39:06;15.30;99.90
28244;DHT22;15510;52.512;13.300;2023-10-13T05:41:51;15.40;99.90
28244;DHT22;15510;52.512;13.300;2023-10-13T05:44:35;15.40;99.90
28244;DHT22;15510;52.512;13.300;2023-10-13T05:47:22;15.40;99.90
28244;DHT22;15510;52.512;13.300;2023-10-13T05:50:09;15.40;99.90
28244;DHT22;15510;52.512;13.300;2023-10-13T05:52:58;15.40;99.90
28244;DHT22;15510;52.512;13.300;2023-10-13T05:55:28;15.30;99.90
28244;DHT22;15510;52.512;13.300;2023-10-13T05:58:13;15.30;99.90
28244;DHT22;15510;52.512;13.300;2023-10-13T06:01:17;15.30;99.90
28244;DHT22;15510;52.512;13.300;2023-10-13T06:04:01;15.40;99.90
28244;DHT22;15510;52.512;13.300;2023-10-13T06:06:45;15.40;99.90
28244;DHT22;15510;52.512;13.300;2023-10-13T06:09:30;15.40;99.90
28244;DHT22;15510;52.512;13.300;2023-10-13T06:12:14;15.40;99.90
28244;DHT22;15510;52.512;13.300;2023-10-13T06:14:58;15.50;99.90
28244;DHT22;15510;52.512;13.300;2023-10-13T06:17:43;15.50;99.90
28244;DHT22;15510;52.512;13.300;2023-10-13T06:20:27;15.50;99.90
28244;DHT22;15510;52.512;13.300;2023-10-13T06:23:12;15.50;99.90
28244;DHT22;15510;52.512;13.300;2023-10-13T06:25:56;15.60;99.90
28244;DHT22;15510;52.512;13.300;2023-10-13T06:28:41;15.60;99.90
28244;DHT22;15510;52.512;13.300;2023-10-13T06:31:10;15.60;99.90
28244;DHT22;15510;52.512;13.300;2023-10-13T06:33:40;15.50;99.90
28244;DHT22;15510;52.512;13.300;2023-10-13T06:36:12;15.60;99.90
28244;DHT22;15510;52.512;13.300;2023-10-13T06:38:38;15.50;99.90
28244;DHT22;15510;52.512;13.300;2023-10-13T06:41:08;15.60;99.90
28244;DHT22;15510;52.512;13.300;2023-10-13T06:43:45;15.60;99.90
28244;DHT22;15510;52.512;13.300;2023-10-13T06:46:11;15.60;99.90
28244;DHT22;15510;52.512;13.300;2023-10-13T06:48:41;15.60;99.90
28244;DHT22;15510;52.512;13.300;2023-10-13T06:51:08;15.60;99.90
28244;DHT22;15510;52.512;13.300;2023-10-13T06:53:45;15.70;99.90
28244;DHT22;15510;52.512;13.300;2023-10-13T06:56:16;15.70;99.90
28244;DHT22;15510;52.512;13.300;2023-10-13T06:58:51;15.70;99.90
28244;DHT22;15510;52.512;13.300;2023-10-13T07:01:17;15.70;99.90
28244;DHT22;15510;52.512;13.300;2023-10-13T07:03:48;15.80;99.90
28244;DHT22;15510;52.512;13.300;2023-10-13T07:06:19;15.90;99.90
28244;DHT22;15510;52.512;13.300;2023-10-13T07:08:48;15.90;99.90
28244;DHT22;15510;52.512;13.300;2023-10-13T07:11:26;16.00;99.90
28244;DHT22;15510;52.512;13.300;2023-10-13T07:14:11;16.00;99.90
28244;DHT22;15510;52.512;13.300;2023-10-13T07:17:22;16.10;99.90
28244;DHT22;15510;52.512;13.300;2023-10-13T07:19:55;16.10;99.90
28244;DHT22;15510;52.512;13.300;2023-10-13T07:22:40;16.20;99.90
28244;DHT22;15510;52.512;13.300;2023-10-13T07:25:23;16.20;99.90
28244;DHT22;15510;52.512;13.300;2023-10-13T07:27:52;16.30;99.90
28244;DHT22;15510;52.512;13.300;2023-10-13T07:30:22;16.30;99.90
28244;DHT22;15510;52.512;13.300;2023-10-13T07:32:57;16.40;99.90
28244;DHT22;15510;52.512;13.300;2023-10-13T07:35:25;16.50;99.90
28244;DHT22;15510;52.512;13.300;2023-10-13T07:37:56;16.50;99.90
28244;DHT22;15510;52.512;13.300;2023-10-13T07:40:26;16.50;99.90
28244;DHT22;15510;52.512;13.300;2023-10-13T07:42:55;16.60;99.90
28244;DHT22;15510;52.512;13.300;2023-10-13T07:45:30;16.60;99.90
28244;DHT22;15510;52.512;13.300;2023-10-13T07:48:06;16.70;99.90
28244;DHT22;15510;52.512;13.300;2023-10-13T07:50:44;16.80;99.90
28244;DHT22;15510;52.512;13.300;2023-10-13T07:53:11;16.80;99.90
28244;DHT22;15510;52.512;13.300;2023-10-13T07:55:52;16.80;99.90
28244;DHT22;15510;52.512;13.300;2023-10-13T07:58:22;16.90;99.90
28244;DHT22;15510;52.512;13.300;2023-10-13T08:00:51;16.90;99.90
28244;DHT22;15510;52.512;13.300;2023-10-13T08:03:33;16.90;99.90
28244;DHT22;15510;52.512;13.300;2023-10-13T08:06:16;16.90;99.90
28244;DHT22;15510;52.512;13.300;2023-10-13T08:08:42;17.00;99.90
28244;DHT22;15510;52.512;13.300;2023-10-13T08:11:12;17.00;99.90
28244;DHT22;15510;52.512;13.300;2023-10-13T08:13:49;17.00;99.90
28244;DHT22;15510;52.512;13.300;2023-10-13T08:16:23;17.10;99.90
28244;DHT22;15510;52.512;13.300;2023-10-13T08:18:53;17.10;99.90
28244;DHT22;15510;52.512;13.300;2023-10-13T08:21:20;17.20;99.90
28244;DHT22;15510;52.512;13.300;2023-10-13T08:23:50;17.20;99.90
28244;DHT22;15510;52.512;13.300;2023-10-13T08:26:20;17.30;99.90
28244;DHT22;15510;52.512;13.300;2023-10-13T08:28:59;17.40;99.90
28244;DHT22;15510;52.512;13.300;2023-10-13T08:31:49;17.40;99.90
28244;DHT22;15510;52.512;13.300;2023-10-13T08:34:43;17.50;99.90
28244;DHT22;15510;52.512;13.300;2023-10-13T08:37:09;17.60;99.90
28244;DHT22;15510;52.512;13.300;2023-10-13T08:39:57;17.50;99.90
28244;DHT22;15510;52.512;13.300;2023-10-13T08:42:34;17.60;99.90
28244;DHT22;15510;52.512;13.300;2023-10-13T08:45:16;17.60;99.90
28244;DHT22;15510;52.512;13.300;2023-10-13T08:47:49;17.60;99.90
28244;DHT22;15510;52.512;13.300;2023-10-13T08:50:35;17.60;99.90
28244;DHT22;15510;52.512;13.300;2023-10-13T08:53:28;17.60;99.90
28244;DHT22;15510;52.512;13.300;2023-10-13T08:56:09;17.60;99.90
28244;DHT22;15510;52.512;13.300;2023-10-13T08:58:48;17.60;99.90
28244;DHT22;15510;52.512;13.300;2023-10-13T09:01:34;17.60;99.90
28244;DHT22;15510;52.512;13.300;2023-10-13T09:04:02;17.60;99.90
28244;DHT22;15510;52.512;13.300;2023-10-13T09:06:50;17.70;99.90
28244;DHT22;15510;52.512;13.300;2023-10-13T09:14:58;17.80;99.90
28244;DHT22;15510;52.512;13.300;2023-10-13T09:17:25;17.80;99.90
28244;DHT22;15510;52.512;13.300;2023-10-13T09:20:08;17.80;99.90
28244;DHT22;15510;52.512;13.300;2023-10-13T09:22:54;17.80;99.90
28244;DHT22;15510;52.512;13.300;2023-10-13T09:25:40;17.70;99.90
28244;DHT22;15510;52.512;13.300;2023-10-13T09:28:21;17.70;99.90
28244;DHT22;15510;52.512;13.300;2023-10-13T09:30:49;17.80;99.90
28244;DHT22;15510;52.512;13.300;2023-10-13T09:33:23;17.90;99.90
28244;DHT22;15510;52.512;13.300;2023-10-13T09:36:06;17.90;99.90
28244;DHT22;15510;52.512;13.300;2023-10-13T09:38:38;18.00;99.90
28244;DHT22;15510;52.512;13.300;2023-10-13T09:41:14;18.00;99.90
28244;DHT22;15510;52.512;13.300;2023-10-13T09:43:51;18.00;99.90
28244;DHT22;15510;52.512;13.300;2023-10-13T09:46:19;18.00;99.90
28244;DHT22;15510;52.512;13.300;2023-10-13T09:48:49;17.90;99.90
28244;DHT22;15510;52.512;13.300;2023-10-13T09:51:32;17.90;99.90
28244;DHT22;15510;52.512;13.300;2023-10-13T09:54:14;17.90;99.90
28244;DHT22;15510;52.512;13.300;2023-10-13T09:56:51;17.80;99.90
28244;DHT22;15510;52.512;13.300;2023-10-13T09:59:23;17.80;99.90
28244;DHT22;15510;52.512;13.300;2023-10-13T10:01:51;17.80;99.90
28244;DHT22;15510;52.512;13.300;2023-10-13T10:04:23;17.90;99.90
28244;DHT22;15510;52.512;13.300;2023-10-13T10:06:55;17.90;99.90
28244;DHT22;15510;52.512;13.300;2023-10-13T10:09:29;17.90;99.90
28244;DHT22;15510;52.512;13.300;2023-10-13T10:12:38;18.00;99.90
28244;DHT22;15510;52.512;13.300;2023-10-13T10:15:07;18.00;99.90
28244;DHT22;15510;52.512;13.300;2023-10-13T10:17:41;18.00;99.90
28244;DHT22;15510;52.512;13.300;2023-10-13T10:20:08;18.00;99.90
28244;DHT22;15510;52.512;13.300;2023-10-13T10:22:59;18.00;99.90
28244;DHT22;15510;52.512;13.300;2023-10-13T10:25:33;18.00;99.90
28244;DHT22;15510;52.512;13.300;2023-10-13T10:28:09;18.00;99.90
28244;DHT22;15510;52.512;13.300;2023-10-13T10:30:37;18.00;99.90
28244;DHT22;15510;52.512;13.300;2023-10-13T10:33:05;18.00;99.90
28244;DHT22;15510;52.512;13.300;2023-10-13T10:35:58;18.10;99.90
28244;DHT22;15510;52.512;13.300;2023-10-13T10:38:24;18.00;99.90
28244;DHT22;15510;52.512;13.300;2023-10-13T10:41:03;18.00;99.90
28244;DHT22;15510;52.512;13.300;2023-10-13T10:46:15;18.00;99.90
28244;DHT22;15510;52.512;13.300;2023-10-13T10:48:44;18.10;99.90
28244;DHT22;15510;52.512;13.300;2023-10-13T10:51:11;18.10;99.90
28244;DHT22;15510;52.512;13.300;2023-10-13T10:54:00;18.10;99.90
28244;DHT22;15510;52.512;13.300;2023-10-13T10:56:56;18.10;99.90
28244;DHT22;15510;52.512;13.300;2023-10-13T10:59:24;18.10;99.90
28244;DHT22;15510;52.512;13.300;2023-10-13T11:01:51;18.10;99.90
28244;DHT22;15510;52.512;13.300;2023-10-13T11:04:18;18.10;99.90
28244;DHT22;15510;52.512;13.300;2023-10-13T11:06:48;18.10;99.90
28244;DHT22;15510;52.512;13.300;2023-10-13T11:09:15;18.10;99.90
28244;DHT22;15510;52.512;13.300;2023-10-13T11:11:54;18.10;99.90
28244;DHT22;15510;52.512;13.300;2023-10-13T11:14:26;18.20;99.90
28244;DHT22;15510;52.512;13.300;2023-10-13T11:16:54;18.20;99.90
28244;DHT22;15510;52.512;13.300;2023-10-13T11:19:22;18.30;99.90
28244;DHT22;15510;52.512;13.300;2023-10-13T11:21:58;18.30;99.90
28244;DHT22;15510;52.512;13.300;2023-10-13T11:24:42;18.30;99.90
28244;DHT22;15510;52.512;13.300;2023-10-13T11:27:17;18.40;99.90
28244;DHT22;15510;52.512;13.300;2023-10-13T11:30:02;18.50;99.90
28244;DHT22;15510;52.512;13.300;2023-10-13T11:32:37;18.50;99.90
28244;DHT22;15510;52.512;13.300;2023-10-13T11:35:10;18.50;99.90
28244;DHT22;15510;52.512;13.300;2023-10-13T11:37:51;18.50;99.90
28244;DHT22;15510;52.512;13.300;2023-10-13T11:40:29;18.50;99.90
28244;DHT22;15510;52.512;13.300;2023-10-13T11:43:41;18.50;99.90
28244;DHT22;15510;52.512;13.300;2023-10-13T11:46:11;18.50;99.90
28244;DHT22;15510;52.512;13.300;2023-10-13T11:48:37;18.50;99.90
28244;DHT22;15510;52.512;13.300;2023-10-13T11:51:12;18.60;99.90
28244;DHT22;15510;52.512;13.300;2023-10-13T11:53:50;18.60;99.90
28244;DHT22;15510;52.512;13.300;2023-10-13T11:56:20;18.70;99.90
28244;DHT22;15510;52.512;13.300;2023-10-13T11:58:50;18.70;99.90
28244;DHT22;15510;52.512;13.300;2023-10-13T12:01:16;18.80;99.90
28244;DHT22;15510;52.512;13.300;2023-10-13T12:03:49;18.80;99.90
28244;DHT22;15510;52.512;13.300;2023-10-13T12:06:35;18.90;99.90
28244;DHT22;15510;52.512;13.300;2023-10-13T12:09:14;18.90;99.90
28244;DHT22;15510;52.512;13.300;2023-10-13T12:11:40;19.00;99.90
28244;DHT22;15510;52.512;13.300;2023-10-13T12:14:16;19.00;99.90
28244;DHT22;15510;52.512;13.300;2023-10-13T12:16:48;19.00;99.90
28244;DHT22;15510;52.512;13.300;2023-10-13T12:19:20;19.10;99.90
28244;DHT22;15510;52.512;13.300;2023-10-13T12:21:53;19.00;99.90
28244;DHT22;15510;52.512;13.300;2023-10-13T12:24:31;19.10;99.90
28244;DHT22;15510;52.512;13.300;2023-10-13T12:27:09;19.20;99.90
28244;DHT22;15510;52.512;13.300;2023-10-13T12:30:01;19.20;99.90
28244;DHT22;15510;52.512;13.300;2023-10-13T12:32:33;19.30;99.90
28244;DHT22;15510;52.512;13.300;2023-10-13T12:35:02;19.30;99.90
28244;DHT22;15510;52.512;13.300;2023-10-13T12:37:34;19.30;99.90
28244;DHT22;15510;52.512;13.300;2023-10-13T12:40:17;19.40;99.90
28244;DHT22;15510;52.512;13.300;2023-10-13T12:43:02;19.40;99.90
28244;DHT22;15510;52.512;13.300;2023-10-13T12:45:51;19.40;99.90
28244;DHT22;15510;52.512;13.300;2023-10-13T12:48:37;19.60;99.90
28244;DHT22;15510;52.512;13.300;2023-10-13T12:51:23;19.60;99.90
28244;DHT22;15510;52.512;13.300;2023-10-13T12:54:06;19.60;99.90
28244;DHT22;15510;52.512;13.300;2023-10-13T12:56:48;19.80;99.90
28244;DHT22;15510;52.512;13.300;2023-10-13T12:59:14;19.80;99.90
28244;DHT22;15510;52.512;13.300;2023-10-13T13:01:40;19.90;99.90
28244;DHT22;15510;52.512;13.300;2023-10-13T13:04:12;19.90;99.90
28244;DHT22;15510;52.512;13.300;2023-10-13T13:06:47;20.00;99.90
28244;DHT22;15510;52.512;13.300;2023-10-13T13:09:17;20.00;99.90
28244;DHT22;15510;52.512;13.300;2023-10-13T13:11:52;20.10;99.90
28244;DHT22;15510;52.512;13.300;2023-10-13T13:14:26;20.10;99.90
28244;DHT22;15510;52.512;13.300;2023-10-13T13:17:00;20.30;99.90
28244;DHT22;15510;52.512;13.300;2023-10-13T13:19:33;20.40;99.90
28244;DHT22;15510;52.512;13.300;2023-10-13T13:22:06;20.50;99.90
28244;DHT22;15510;52.512;13.300;2023-10-13T13:24:41;20.60;99.90
28244;DHT22;15510;52.512;13.300;2023-10-13T13:27:14;20.60;99.90
28244;DHT22;15510;52.512;13.300;2023-10-13T13:29:49;20.70;99.90
28244;DHT22;15510;52.512;13.300;2023-10-13T13:32:14;20.70;99.90
28244;DHT22;15510;52.512;13.300;2023-10-13T13:34:50;20.80;99.90
28244;DHT22;15510;52.512;13.300;2023-10-13T13:37:36;20.90;99.90
28244;DHT22;15510;52.512;13.300;2023-10-13T13:40:05;21.00;99.90
28244;DHT22;15510;52.512;13.300;2023-10-13T13:42:45;21.10;99.90
28244;DHT22;15510;52.512;13.300;2023-10-13T13:45:14;21.10;99.90
28244;DHT22;15510;52.512;13.300;2023-10-13T13:48:09;21.10;99.90
28244;DHT22;15510;52.512;13.300;2023-10-13T13:50:41;21.10;99.90
28244;DHT22;15510;52.512;13.300;2023-10-13T13:53:07;21.10;99.90
28244;DHT22;15510;52.512;13.300;2023-10-13T13:55:39;21.10;99.90
28244;DHT22;15510;52.512;13.300;2023-10-13T13:58:05;21.10;99.90
28244;DHT22;15510;52.512;13.300;2023-10-13T14:00:37;21.10;99.90
28244;DHT22;15510;52.512;13.300;2023-10-13T14:03:14;21.10;99.90
28244;DHT22;15510;52.512;13.300;2023-10-13T14:06:00;21.20;99.90
28244;DHT22;15510;52.512;13.300;2023-10-13T14:08:26;21.20;99.90
28244;DHT22;15510;52.512;13.300;2023-10-13T14:10:53;21.30;99.90
28244;DHT22;15510;52.512;13.300;2023-10-13T14:13:38;21.30;99.90
28244;DHT22;15510;52.512;13.300;2023-10-13T14:16:21;21.40;99.90
28244;DHT22;15510;52.512;13.300;2023-10-13T14:18:51;21.30;99.90
28244;DHT22;15510;52.512;13.300;2023-10-13T14:21:18;21.30;99.90
28244;DHT22;15510;52.512;13.300;2023-10-13T14:23:50;21.30;99.90
28244;DHT22;15510;52.512;13.300;2023-10-13T14:26:20;21.30;99.90
28244;DHT22;15510;52.512;13.300;2023-10-13T14:28:50;21.30;99.90
28244;DHT22;15510;52.512;13.300;2023-10-13T14:31:35;21.30;99.90
28244;DHT22;15510;52.512;13.300;2023-10-13T14:34:02;21.30;99.90
28244;DHT22;15510;52.512;13.300;2023-10-13T14:36:29;21.30;99.90
28244;DHT22;15510;52.512;13.300;2023-10-13T14:39:10;21.30;99.90
28244;DHT22;15510;52.512;13.300;2023-10-13T14:41:37;21.30;99.90
28244;DHT22;15510;52.512;13.300;2023-10-13T14:44:08;21.40;99.90
28244;DHT22;15510;52.512;13.300;2023-10-13T14:46:34;21.40;99.90
28244;DHT22;15510;52.512;13.300;2023-10-13T14:49:06;21.40;99.90
28244;DHT22;15510;52.512;13.300;2023-10-13T14:51:35;21.40;99.90
28244;DHT22;15510;52.512;13.300;2023-10-13T14:54:05;21.40;99.90
28244;DHT22;15510;52.512;13.300;2023-10-13T14:56:33;21.40;99.90
28244;DHT22;15510;52.512;13.300;2023-10-13T14:58:59;21.30;99.90
28244;DHT22;15510;52.512;13.300;2023-10-13T15:01:24;21.30;99.90
28244;DHT22;15510;52.512;13.300;2023-10-13T15:03:53;21.30;99.90
28244;DHT22;15510;52.512;13.300;2023-10-13T15:06:26;21.30;99.90
28244;DHT22;15510;52.512;13.300;2023-10-13T15:08:55;21.30;99.90
28244;DHT22;15510;52.512;13.300;2023-10-13T15:11:22;21.30;99.90
28244;DHT22;15510;52.512;13.300;2023-10-13T15:13:55;21.30;99.90
28244;DHT22;15510;52.512;13.300;2023-10-13T15:16:23;21.30;99.90
28244;DHT22;15510;52.512;13.300;2023-10-13T15:18:51;21.20;99.90
28244;DHT22;15510;52.512;13.300;2023-10-13T15:21:24;21.20;99.90
28244;DHT22;15510;52.512;13.300;2023-10-13T15:24:03;21.20;99.90
28244;DHT22;15510;52.512;13.300;2023-10-13T15:26:30;21.20;99.90
28244;DHT22;15510;52.512;13.300;2023-10-13T15:28:58;21.20;99.90
28244;DHT22;15510;52.512;13.300;2023-10-13T15:31:26;21.10;99.90
28244;DHT22;15510;52.512;13.300;2023-10-13T15:34:04;21.10;99.90
28244;DHT22;15510;52.512;13.300;2023-10-13T15:36:37;21.00;99.90
28244;DHT22;15510;52.512;13.300;2023-10-13T15:39:06;21.00;99.90
28244;DHT22;15510;52.512;13.300;2023-10-13T15:41:41;21.00;99.90
28244;DHT22;15510;52.512;13.300;2023-10-13T15:44:12;21.00;99.90
28244;DHT22;15510;52.512;13.300;2023-10-13T15:46:39;21.00;99.90
28244;DHT22;15510;52.512;13.300;2023-10-13T15:49:05;20.90;99.90
28244;DHT22;15510;52.512;13.300;2023-10-13T15:51:35;20.80;99.90
28244;DHT22;15510;52.512;13.300;2023-10-13T15:54:05;20.90;99.90
28244;DHT22;15510;52.512;13.300;2023-10-13T15:56:44;20.90;99.90
28244;DHT22;15510;52.512;13.300;2023-10-13T15:59:10;20.80;99.90
28244;DHT22;15510;52.512;13.300;2023-10-13T16:01:37;20.80;99.90
28244;DHT22;15510;52.512;13.300;2023-10-13T16:04:08;20.80;99.90
28244;DHT22;15510;52.512;13.300;2023-10-13T16:06:47;20.70;99.90
28244;DHT22;15510;52.512;13.300;2023-10-13T16:09:18;20.70;99.90
28244;DHT22;15510;52.512;13.300;2023-10-13T16:11:51;20.70;99.90
28244;DHT22;15510;52.512;13.300;2023-10-13T16:14:18;20.60;99.90
28244;DHT22;15510;52.512;13.300;2023-10-13T16:16:45;20.60;99.90